createdAt,value
2023-01-21T00:01:44.846Z,84.38
2023-01-21T00:04:16.192Z,82.65
2023-01-21T00:06:44.635Z,82.74
2023-01-21T00:09:13.079Z,82.57
2023-01-21T00:11:41.309Z,83.05
2023-01-21T00:14:09.516Z,83.34
2023-01-21T00:16:37.703Z,84.51
2023-01-21T00:19:07.252Z,84.07
2023-01-21T00:21:35.438Z,85.65
2023-01-21T00:24:03.628Z,84.57
2023-01-21T00:26:31.821Z,84.96
2023-01-21T00:29:06.002Z,86.10
2023-01-21T00:31:34.399Z,86.50
2023-01-21T00:34:02.856Z,87.40
2023-01-21T00:36:32.420Z,86.96
2023-01-21T00:39:00.986Z,87.64
2023-01-21T00:41:29.251Z,86.73
2023-01-21T00:44:01.656Z,87.91
2023-01-21T00:46:29.923Z,87.98
2023-01-21T00:48:58.112Z,89.03
2023-01-21T00:51:26.348Z,88.56
2023-01-21T00:53:55.903Z,87.30
2023-01-21T00:56:24.814Z,87.57
2023-01-21T00:58:53.114Z,85.46
2023-01-21T01:01:23.511Z,84.35
2023-01-21T01:03:52.003Z,84.39
2023-01-21T01:06:30.211Z,83.81
2023-01-21T01:09:00.201Z,83.79
2023-01-21T01:11:29.458Z,84.46
2023-01-21T01:13:59.508Z,84.52
2023-01-21T01:16:27.876Z,85.25
2023-01-21T01:18:57.542Z,84.18
2023-01-21T01:21:25.884Z,84.18
2023-01-21T01:23:54.774Z,84.01
2023-01-21T01:26:24.331Z,84.68
2023-01-21T01:28:52.981Z,83.91
2023-01-21T01:31:22.721Z,83.74
2023-01-21T01:33:50.983Z,84.05
2023-01-21T01:36:23.958Z,83.66
2023-01-21T01:38:53.020Z,83.95
2023-01-21T01:41:27.287Z,84.83
2023-01-21T01:43:59.623Z,85.57
2023-01-21T01:46:30.779Z,85.84
2023-01-21T01:49:06.521Z,86.12
2023-01-21T01:51:44.670Z,86.22
2023-01-21T01:54:17.481Z,85.56
2023-01-21T01:56:51.440Z,85.64
2023-01-21T01:59:20.559Z,83.84
2023-01-21T02:01:48.820Z,84.91
2023-01-21T02:04:22.496Z,83.23
2023-01-21T02:06:53.544Z,83.95
2023-01-21T02:09:22.076Z,83.18
2023-01-21T02:11:51.917Z,83.23
2023-01-21T02:14:20.121Z,83.97
2023-01-21T02:17:13.161Z,84.61
2023-01-21T02:20:19.101Z,84.89
2023-01-21T02:22:53.234Z,84.49
2023-01-21T02:25:57.757Z,84.18
2023-01-21T02:29:08.466Z,84.59
2023-01-21T02:32:02.010Z,84.71
2023-01-21T02:34:37.568Z,84.52
2023-01-21T02:37:12.350Z,84.89
2023-01-21T02:40:00.017Z,84.14
2023-01-21T02:42:40.030Z,83.62
2023-01-21T02:45:19.776Z,84.27
2023-01-21T02:47:54.937Z,83.50
2023-01-21T02:50:28.452Z,84.05
2023-01-21T02:52:58.561Z,85.65
2023-01-21T02:55:31.464Z,84.95
2023-01-21T02:58:02.941Z,86.83
2023-01-21T03:00:48.171Z,87.33
2023-01-21T03:04:09.223Z,88.22
2023-01-21T03:06:52.420Z,88.42
2023-01-21T03:09:24.828Z,88.12
2023-01-21T03:12:08.953Z,87.16
2023-01-21T03:14:58.829Z,87.21
2023-01-21T03:17:37.673Z,87.31
2023-01-21T03:20:12.417Z,87.31
2023-01-21T03:22:42.200Z,87.53
2023-01-21T03:25:13.112Z,87.32
2023-01-21T03:27:44.530Z,88.12
2023-01-21T03:30:18.039Z,89.96
2023-01-21T03:32:52.767Z,92.05
2023-01-21T03:35:27.192Z,93.94
2023-01-21T03:38:04.363Z,94.87
2023-01-21T03:40:37.302Z,96.28
2023-01-21T03:43:05.711Z,97.98
2023-01-21T03:45:39.411Z,98.79
2023-01-21T03:48:17.616Z,99.24
2023-01-21T03:50:53.250Z,100.00
2023-01-21T03:53:23.157Z,100.00
2023-01-21T03:55:52.481Z,100.00
2023-01-21T03:58:20.763Z,100.00
2023-01-21T04:00:49.547Z,100.00
2023-01-21T04:03:17.722Z,100.00
2023-01-21T04:05:45.915Z,100.00
2023-01-21T04:08:14.128Z,100.00
2023-01-21T04:10:43.755Z,100.00
2023-01-21T04:13:12.509Z,100.00
2023-01-21T04:15:40.705Z,100.00
2023-01-21T04:18:08.914Z,100.00
2023-01-21T04:20:37.113Z,100.00
2023-01-21T04:23:05.366Z,100.00
2023-01-21T04:25:33.585Z,100.00
2023-01-21T04:28:03.150Z,100.00
2023-01-21T04:30:31.445Z,100.00
2023-01-21T04:32:59.684Z,100.00
2023-01-21T04:35:27.914Z,100.00
2023-01-21T04:37:56.245Z,100.00
2023-01-21T04:40:24.507Z,100.00
2023-01-21T04:42:52.662Z,100.00
2023-01-21T04:45:22.313Z,100.00
2023-01-21T04:47:50.574Z,100.00
2023-01-21T04:50:19.640Z,100.00
2023-01-21T04:52:47.874Z,100.00
2023-01-21T04:55:16.262Z,100.00
2023-01-21T04:57:44.484Z,100.00
2023-01-21T05:00:14.078Z,100.00
2023-01-21T05:02:43.725Z,100.00
2023-01-21T05:05:14.592Z,100.00
2023-01-21T05:07:43.276Z,100.00
2023-01-21T05:10:17.001Z,100.00
2023-01-21T05:12:45.402Z,100.00
2023-01-21T05:15:13.702Z,100.00
2023-01-21T05:17:43.470Z,100.00
2023-01-21T05:20:12.972Z,100.00
2023-01-21T05:22:41.224Z,100.00
2023-01-21T05:25:10.065Z,100.00
2023-01-21T05:27:38.259Z,100.00
2023-01-21T05:30:08.335Z,100.00
2023-01-21T05:32:36.951Z,100.00
2023-01-21T05:35:07.312Z,100.00
2023-01-21T05:37:35.881Z,100.00
2023-01-21T05:40:04.401Z,100.00
2023-01-21T05:42:32.575Z,100.00
2023-01-21T05:45:01.471Z,100.00
2023-01-21T05:47:29.686Z,100.00
2023-01-21T05:49:57.883Z,100.00
2023-01-21T05:52:27.475Z,100.00
2023-01-21T05:55:01.950Z,100.00
2023-01-21T05:57:31.336Z,100.00
2023-01-21T05:59:59.995Z,100.00
2023-01-21T06:02:28.695Z,100.00
2023-01-21T06:04:56.935Z,100.00
2023-01-21T06:07:25.092Z,100.00
2023-01-21T06:09:54.698Z,100.00
2023-01-21T06:12:24.767Z,100.00
2023-01-21T06:14:53.111Z,100.00
2023-01-21T06:17:21.434Z,100.00
2023-01-21T06:19:49.637Z,100.00
2023-01-21T06:22:18.593Z,100.00
2023-01-21T06:24:46.934Z,100.00
2023-01-21T06:27:16.442Z,100.00
2023-01-21T06:29:44.925Z,100.00
2023-01-21T06:32:13.128Z,100.00
2023-01-21T06:34:41.307Z,100.00
2023-01-21T06:37:09.596Z,100.00
2023-01-21T06:39:38.782Z,100.00
2023-01-21T06:42:07.044Z,100.00
2023-01-21T06:44:36.603Z,100.00
2023-01-21T06:47:04.960Z,100.00
2023-01-21T06:49:33.214Z,100.00
2023-01-21T06:52:01.421Z,100.00
2023-01-21T06:54:30.605Z,100.00
2023-01-21T06:56:59.901Z,100.00
2023-01-21T06:59:28.150Z,100.00
2023-01-21T07:01:59.102Z,100.00
2023-01-21T07:04:30.178Z,100.00
2023-01-21T07:06:58.310Z,100.00
2023-01-21T07:09:26.576Z,100.00
2023-01-21T07:11:55.526Z,100.00
2023-01-21T07:14:23.747Z,100.00
2023-01-21T07:16:52.066Z,100.00
2023-01-21T07:19:21.606Z,100.00
2023-01-21T07:21:50.334Z,100.00
2023-01-21T07:24:18.542Z,100.00
2023-01-21T07:26:46.778Z,100.00
2023-01-21T07:29:15.228Z,100.00
2023-01-21T07:31:43.475Z,100.00
2023-01-21T07:34:11.901Z,100.00
2023-01-21T07:36:41.590Z,100.00
2023-01-21T07:39:10.184Z,100.00
2023-01-21T07:41:42.060Z,100.00
2023-01-21T07:44:13.390Z,100.00
2023-01-21T07:46:41.648Z,100.00
2023-01-21T07:49:12.860Z,100.00
2023-01-21T07:51:42.431Z,100.00
2023-01-21T07:54:12.062Z,100.00
2023-01-21T07:56:40.369Z,100.00
2023-01-21T07:59:09.143Z,100.00
2023-01-21T08:01:37.470Z,100.00
2023-01-21T08:04:07.060Z,100.00
2023-01-21T08:06:35.314Z,100.00
2023-01-21T08:09:05.537Z,100.00
2023-01-21T08:11:33.900Z,100.00
2023-01-21T08:14:02.132Z,100.00
2023-01-21T08:16:30.869Z,100.00
2023-01-21T08:18:59.078Z,100.00
2023-01-21T08:21:27.283Z,100.00
2023-01-21T08:23:55.474Z,100.00
2023-01-21T08:26:25.820Z,100.00
2023-01-21T08:28:55.448Z,100.00
2023-01-21T08:31:23.726Z,100.00
2023-01-21T08:33:51.983Z,100.00
2023-01-21T08:36:20.254Z,100.00
2023-01-21T08:38:48.875Z,100.00
2023-01-21T08:41:17.793Z,100.00
2023-01-21T08:43:47.363Z,100.00
2023-01-21T08:46:15.875Z,100.00
2023-01-21T08:48:44.144Z,100.00
2023-01-21T08:51:12.496Z,100.00
2023-01-21T08:53:40.776Z,100.00
2023-01-21T08:56:09.271Z,100.00
2023-01-21T08:58:37.521Z,100.00
2023-01-21T09:01:12.673Z,100.00
2023-01-21T09:03:40.957Z,100.00
2023-01-21T09:06:13.130Z,100.00
2023-01-21T09:08:42.158Z,100.00
2023-01-21T09:11:10.477Z,100.00
2023-01-21T09:13:40.740Z,100.00
2023-01-21T09:16:12.512Z,100.00
2023-01-21T09:18:41.048Z,100.00
2023-01-21T09:21:11.705Z,100.00
2023-01-21T09:23:41.593Z,100.00
2023-01-21T09:26:15.811Z,100.00
2023-01-21T09:28:46.388Z,100.00
2023-01-21T09:31:18.560Z,100.00
2023-01-21T09:33:49.439Z,100.00
2023-01-21T09:36:20.089Z,100.00
2023-01-21T09:38:50.638Z,100.00
2023-01-21T09:41:29.330Z,100.00
2023-01-21T09:44:08.807Z,100.00
2023-01-21T09:46:45.867Z,100.00
2023-01-21T09:49:20.657Z,100.00
2023-01-21T09:52:06.891Z,100.00
2023-01-21T09:54:37.460Z,100.00
2023-01-21T09:57:41.583Z,100.00
2023-01-21T10:00:34.954Z,100.00
2023-01-21T10:03:23.004Z,100.00
2023-01-21T10:06:23.148Z,100.00
2023-01-21T10:09:22.267Z,100.00
2023-01-21T10:12:07.282Z,100.00
2023-01-21T10:15:20.360Z,100.00
2023-01-21T10:17:57.268Z,100.00
2023-01-21T10:20:31.635Z,100.00
2023-01-21T10:23:06.445Z,100.00
2023-01-21T10:25:37.208Z,100.00
2023-01-21T10:28:14.160Z,100.00
2023-01-21T10:30:46.881Z,100.00
2023-01-21T10:33:19.705Z,100.00
2023-01-21T10:36:30.958Z,99.74
2023-01-21T10:39:06.733Z,100.00
2023-01-21T10:41:54.800Z,99.96
2023-01-21T10:44:29.649Z,100.00
2023-01-21T10:47:05.928Z,100.00
2023-01-21T10:49:49.284Z,100.00
2023-01-21T10:52:27.503Z,100.00
2023-01-21T10:55:06.491Z,100.00
2023-01-21T10:57:49.443Z,100.00
2023-01-21T11:00:23.737Z,100.00
2023-01-21T11:02:57.934Z,100.00
2023-01-21T11:05:27.450Z,100.00
2023-01-21T11:07:58.426Z,100.00
2023-01-21T11:10:28.378Z,100.00
2023-01-21T11:12:57.355Z,100.00
2023-01-21T11:15:32.099Z,100.00
2023-01-21T11:18:00.332Z,100.00
2023-01-21T11:20:36.916Z,100.00
2023-01-21T11:23:11.523Z,100.00
2023-01-21T11:25:42.216Z,100.00
2023-01-21T11:28:24.995Z,100.00
2023-01-21T11:31:08.551Z,100.00
2023-01-21T11:33:37.896Z,100.00
2023-01-21T11:36:16.184Z,100.00
2023-01-21T11:38:48.566Z,100.00
2023-01-21T11:41:21.678Z,99.49
2023-01-21T11:43:53.499Z,99.35
2023-01-21T11:46:31.789Z,100.00
2023-01-21T11:49:27.949Z,99.69
2023-01-21T11:52:19.581Z,99.39
2023-01-21T11:54:49.636Z,99.35
2023-01-21T11:57:30.920Z,99.31
2023-01-21T12:00:10.150Z,97.87
2023-01-21T12:02:46.319Z,98.10
2023-01-21T12:05:19.023Z,99.23
2023-01-21T12:07:51.025Z,97.83
2023-01-21T12:10:30.603Z,97.67
2023-01-21T12:13:18.790Z,98.23
2023-01-21T12:16:33.204Z,98.56
2023-01-21T12:19:26.763Z,98.06
2023-01-21T12:22:12.146Z,99.17
2023-01-21T12:24:58.153Z,98.54
2023-01-21T12:27:34.162Z,97.25
2023-01-21T12:30:17.928Z,97.82
2023-01-21T12:32:51.606Z,98.30
2023-01-21T12:35:29.495Z,97.03
2023-01-21T12:38:04.148Z,96.71
2023-01-21T12:40:35.970Z,97.06
2023-01-21T12:43:19.510Z,97.58
2023-01-21T12:45:53.276Z,97.29
2023-01-21T12:48:30.584Z,97.39
2023-01-21T12:51:05.072Z,97.40
2023-01-21T12:53:41.846Z,98.47
2023-01-21T12:56:22.363Z,98.21
2023-01-21T12:58:58.981Z,96.64
2023-01-21T13:01:45.666Z,97.30
2023-01-21T13:04:31.693Z,95.10
2023-01-21T13:07:06.566Z,95.90
2023-01-21T13:09:42.913Z,93.59
2023-01-21T13:12:17.067Z,94.69
2023-01-21T13:14:51.736Z,93.66
2023-01-21T13:17:23.999Z,93.49
2023-01-21T13:19:52.247Z,94.92
2023-01-21T13:22:36.616Z,93.72
2023-01-21T13:25:23.210Z,93.44
2023-01-21T13:28:01.633Z,94.68
2023-01-21T13:30:40.957Z,95.66
2023-01-21T13:33:32.260Z,95.32
2023-01-21T13:36:15.542Z,93.94
2023-01-21T13:38:51.106Z,93.86
2023-01-21T13:41:34.811Z,92.66
2023-01-21T13:44:46.686Z,94.53
2023-01-21T13:47:29.828Z,93.33
2023-01-21T13:50:17.447Z,92.58
2023-01-21T13:53:09.729Z,92.85
2023-01-21T13:55:54.571Z,94.29
2023-01-21T13:58:34.578Z,92.84
2023-01-21T14:01:07.966Z,93.08
2023-01-21T14:03:44.645Z,93.94
2023-01-21T14:06:22.090Z,94.74
2023-01-21T14:08:55.831Z,97.26
2023-01-21T14:11:30.966Z,97.24
2023-01-21T14:14:25.054Z,95.88
2023-01-21T14:17:43.297Z,96.23
2023-01-21T14:20:54.743Z,97.28
2023-01-21T14:23:50.298Z,95.68
2023-01-21T14:26:39.948Z,96.88
2023-01-21T14:29:18.651Z,95.99
2023-01-21T14:31:51.897Z,95.74
2023-01-21T14:34:24.874Z,96.76
2023-01-21T14:37:05.070Z,95.86
2023-01-21T14:39:52.661Z,95.22
2023-01-21T14:42:26.372Z,96.31
2023-01-21T14:45:06.327Z,96.48
2023-01-21T14:47:50.247Z,95.56
2023-01-21T14:50:53.503Z,97.02
2023-01-21T14:53:26.164Z,97.14
2023-01-21T14:56:20.232Z,96.91
2023-01-21T14:58:51.170Z,95.78
2023-01-21T15:01:41.341Z,96.72
2023-01-21T15:04:25.269Z,96.36
2023-01-21T15:06:58.148Z,97.55
2023-01-21T15:09:31.813Z,96.77
2023-01-21T15:12:02.707Z,96.62
2023-01-21T15:14:34.787Z,97.05
2023-01-21T15:17:03.108Z,97.89
2023-01-21T15:19:34.518Z,97.81
2023-01-21T15:22:40.782Z,96.91
2023-01-21T15:25:34.230Z,97.08
2023-01-21T15:28:43.834Z,98.40
2023-01-21T15:31:16.407Z,97.74
2023-01-21T15:33:50.453Z,97.58
2023-01-21T15:36:25.889Z,98.92
2023-01-21T15:39:00.747Z,99.04
2023-01-21T15:41:53.885Z,99.02
2023-01-21T15:44:37.556Z,100.00
2023-01-21T15:47:29.415Z,100.00
2023-01-21T15:50:06.680Z,100.00
2023-01-21T15:52:50.744Z,100.00
2023-01-21T15:55:37.390Z,100.00
2023-01-21T15:58:21.675Z,100.00
2023-01-21T16:01:00.776Z,100.00
2023-01-21T16:03:34.163Z,100.00
2023-01-21T16:06:09.090Z,100.00
2023-01-21T16:08:58.448Z,100.00
2023-01-21T16:11:56.761Z,100.00
2023-01-21T16:14:52.440Z,100.00
2023-01-21T16:17:31.316Z,100.00
2023-01-21T16:20:01.421Z,100.00
2023-01-21T16:22:35.026Z,100.00
2023-01-21T16:25:07.931Z,100.00
2023-01-21T16:27:36.294Z,100.00
2023-01-21T16:30:09.477Z,100.00
2023-01-21T16:32:38.034Z,100.00
2023-01-21T16:35:07.224Z,100.00
2023-01-21T16:37:35.785Z,100.00
2023-01-21T16:40:27.616Z,100.00
2023-01-21T16:43:12.954Z,100.00
2023-01-21T16:45:51.156Z,100.00
2023-01-21T16:48:24.720Z,100.00
2023-01-21T16:50:54.404Z,100.00
2023-01-21T16:53:25.225Z,100.00
2023-01-21T16:55:56.247Z,100.00
2023-01-21T16:58:29.560Z,100.00
2023-01-21T17:01:06.808Z,100.00
2023-01-21T17:03:35.215Z,100.00
2023-01-21T17:06:19.587Z,100.00
2023-01-21T17:08:51.842Z,100.00
2023-01-21T17:11:20.369Z,100.00
2023-01-21T17:13:50.055Z,100.00
2023-01-21T17:16:27.222Z,100.00
2023-01-21T17:18:59.375Z,100.00
2023-01-21T17:21:37.671Z,100.00
2023-01-21T17:24:16.327Z,100.00
2023-01-21T17:26:48.523Z,100.00
2023-01-21T17:29:21.913Z,100.00
2023-01-21T17:31:59.623Z,100.00
2023-01-21T17:34:30.180Z,100.00
2023-01-21T17:36:59.125Z,100.00
2023-01-21T17:40:00.959Z,100.00
2023-01-21T17:42:41.524Z,100.00
2023-01-21T17:45:20.729Z,100.00
2023-01-21T17:48:08.255Z,100.00
2023-01-21T17:50:38.319Z,100.00
2023-01-21T17:53:09.991Z,100.00
2023-01-21T17:55:40.187Z,100.00
2023-01-21T17:58:46.663Z,100.00
2023-01-21T18:01:16.157Z,100.00
2023-01-21T18:03:45.800Z,100.00
2023-01-21T18:06:21.226Z,100.00
2023-01-21T18:08:50.877Z,100.00
2023-01-21T18:11:19.712Z,100.00
2023-01-21T18:13:48.534Z,100.00
2023-01-21T18:16:17.032Z,100.00
2023-01-21T18:18:46.727Z,100.00
2023-01-21T18:21:20.519Z,100.00
2023-01-21T18:23:49.671Z,100.00
2023-01-21T18:26:30.314Z,100.00
2023-01-21T18:28:58.641Z,100.00
2023-01-21T18:31:27.146Z,100.00
2023-01-21T18:33:56.840Z,100.00
2023-01-21T18:36:25.027Z,100.00
2023-01-21T18:38:53.157Z,100.00
2023-01-21T18:41:21.432Z,100.00
2023-01-21T18:43:49.644Z,100.00
2023-01-21T18:46:19.812Z,100.00
2023-01-21T18:48:48.292Z,100.00
2023-01-21T18:51:18.109Z,100.00
2023-01-21T18:53:46.478Z,100.00
2023-01-21T18:56:15.773Z,100.00
2023-01-21T18:58:44.169Z,100.00
2023-01-21T19:01:22.981Z,100.00
2023-01-21T19:04:04.151Z,100.00
2023-01-21T19:06:33.831Z,100.00
2023-01-21T19:09:02.108Z,100.00
2023-01-21T19:11:30.358Z,100.00
2023-01-21T19:13:58.562Z,100.00
2023-01-21T19:16:26.916Z,100.00
2023-01-21T19:18:55.117Z,100.00
2023-01-21T19:21:23.299Z,100.00
2023-01-21T19:23:53.795Z,100.00
2023-01-21T19:26:22.749Z,100.00
2023-01-21T19:28:51.466Z,100.00
2023-01-21T19:31:19.787Z,100.00
2023-01-21T19:33:48.028Z,100.00
2023-01-21T19:36:20.468Z,100.00
2023-01-21T19:38:56.561Z,100.00
2023-01-21T19:41:25.577Z,100.00
2023-01-21T19:43:53.758Z,100.00
2023-01-21T19:46:23.856Z,100.00
2023-01-21T19:48:53.665Z,100.00
2023-01-21T19:51:22.003Z,100.00
2023-01-21T19:53:50.287Z,100.00
2023-01-21T19:56:24.815Z,100.00
2023-01-21T19:58:53.309Z,100.00
2023-01-21T20:01:21.515Z,100.00
2023-01-21T20:03:59.610Z,100.00
2023-01-21T20:06:31.892Z,100.00
2023-01-21T20:09:01.177Z,100.00
2023-01-21T20:11:31.001Z,100.00
2023-01-21T20:13:59.186Z,100.00
2023-01-21T20:16:27.601Z,100.00
2023-01-21T20:18:56.246Z,100.00
2023-01-21T20:21:24.591Z,100.00
2023-01-21T20:23:52.836Z,100.00
2023-01-21T20:26:27.130Z,100.00
2023-01-21T20:28:57.765Z,100.00
2023-01-21T20:31:26.015Z,100.00
2023-01-21T20:33:54.251Z,100.00
2023-01-21T20:36:25.249Z,100.00
2023-01-21T20:38:55.005Z,100.00
2023-01-21T20:41:23.669Z,100.00
2023-01-21T20:43:51.897Z,100.00
2023-01-21T20:46:23.766Z,100.00
2023-01-21T20:49:17.119Z,100.00
2023-01-21T20:51:45.652Z,100.00
2023-01-21T20:54:13.830Z,100.00
2023-01-21T20:56:42.097Z,100.00
2023-01-21T20:59:10.751Z,100.00
2023-01-21T21:02:04.358Z,100.00
2023-01-21T21:04:42.657Z,100.00
2023-01-21T21:07:16.682Z,100.00
2023-01-21T21:09:44.837Z,100.00
2023-01-21T21:12:13.028Z,100.00
2023-01-21T21:14:41.209Z,100.00
2023-01-21T21:17:13.179Z,100.00
2023-01-21T21:19:41.382Z,100.00
2023-01-21T21:22:09.594Z,100.00
2023-01-21T21:24:39.031Z,100.00
2023-01-21T21:27:07.280Z,100.00
2023-01-21T21:29:35.476Z,100.00
2023-01-21T21:32:04.616Z,100.00
2023-01-21T21:34:34.450Z,100.00
2023-01-21T21:37:02.674Z,100.00
2023-01-21T21:39:30.951Z,100.00
2023-01-21T21:42:16.711Z,100.00
2023-01-21T21:44:45.399Z,100.00
2023-01-21T21:47:30.859Z,100.00
2023-01-21T21:50:00.419Z,100.00
2023-01-21T21:52:31.491Z,100.00
2023-01-21T21:54:59.659Z,100.00
2023-01-21T21:57:27.855Z,100.00
2023-01-21T21:59:56.050Z,100.00
2023-01-21T22:02:24.202Z,100.00
2023-01-21T22:04:54.919Z,100.00
2023-01-21T22:07:24.683Z,100.00
2023-01-21T22:09:52.907Z,100.00
2023-01-21T22:12:21.083Z,100.00
2023-01-21T22:14:49.262Z,100.00
2023-01-21T22:17:17.491Z,100.00
2023-01-21T22:19:45.712Z,100.00
2023-01-21T22:22:13.890Z,100.00
2023-01-21T22:24:44.094Z,100.00
2023-01-21T22:27:13.152Z,100.00
2023-01-21T22:29:41.436Z,100.00
2023-01-21T22:32:10.051Z,100.00
2023-01-21T22:34:38.181Z,100.00
2023-01-21T22:37:06.572Z,100.00
2023-01-21T22:39:34.761Z,100.00
2023-01-21T22:42:05.082Z,100.00
2023-01-21T22:44:33.293Z,100.00
2023-01-21T22:47:04.055Z,100.00
2023-01-21T22:49:32.227Z,100.00
2023-01-21T22:52:00.438Z,100.00
2023-01-21T22:54:28.603Z,100.00
2023-01-21T22:56:56.852Z,100.00
2023-01-21T22:59:26.469Z,100.00
2023-01-21T23:01:54.591Z,100.00
2023-01-21T23:04:27.743Z,100.00
2023-01-21T23:06:55.952Z,100.00
2023-01-21T23:09:24.419Z,100.00
2023-01-21T23:11:53.285Z,100.00
2023-01-21T23:14:21.759Z,100.00
2023-01-21T23:16:53.615Z,100.00
2023-01-21T23:19:21.849Z,100.00
2023-01-21T23:21:50.006Z,100.00
2023-01-21T23:24:19.148Z,100.00
2023-01-21T23:26:47.428Z,100.00
2023-01-21T23:29:15.611Z,100.00
2023-01-21T23:31:43.997Z,100.00
2023-01-21T23:34:15.342Z,100.00
2023-01-21T23:36:43.575Z,100.00
2023-01-21T23:39:12.018Z,100.00
2023-01-21T23:41:40.199Z,100.00
2023-01-21T23:44:10.643Z,100.00
2023-01-21T23:46:39.057Z,100.00
2023-01-21T23:49:07.455Z,100.00
2023-01-21T23:51:37.035Z,100.00
2023-01-21T23:54:05.446Z,100.00
2023-01-21T23:56:33.738Z,100.00
2023-01-21T23:59:02.305Z,100.00
